Time,TemperatureF,DewpointF,PressureIn,WindDirection,WindDirectionDegrees,WindSpeedMPH,WindSpeedGustMPH,Humidity,HourlyPrecipIn,Conditions,Clouds,dailyrainin,SoftwareType,DateUTC
2013-11-08 00:02:00,46.1,16.4,30.23,SSE,158,0.9,0.9,30,0.00,,---,0.00,VWS V14.01,2013-11-08 07:02:00,
2013-11-08 00:07:00,46.4,16.7,30.23,SSE,158,0.4,0.4,30,0.00,,---,0.00,VWS V14.01,2013-11-08 07:07:00,
2013-11-08 00:12:00,46.4,16.7,30.23,SSE,158,0.0,0.0,30,0.00,,---,0.00,VWS V14.01,2013-11-08 07:12:00,
2013-11-08 00:17:00,45.4,17.3,30.23,NW,315,0.2,0.2,32,0.00,,---,0.00,VWS V14.01,2013-11-08 07:17:00,
2013-11-08 00:22:00,44.1,16.9,30.23,NW,315,1.6,1.6,33,0.00,,---,0.00,VWS V14.01,2013-11-08 07:22:00,
2013-11-08 00:27:00,43.2,16.7,30.23,NNW,338,0.0,0.0,34,0.00,,---,0.00,VWS V14.01,2013-11-08 07:27:00,
2013-11-08 00:32:00,42.3,17.3,30.23,NNW,338,0.0,0.0,36,0.00,,---,0.00,VWS V14.01,2013-11-08 07:32:00,
2013-11-08 00:37:00,41.8,16.8,30.23,NW,315,0.0,0.0,36,0.00,,---,0.00,VWS V14.01,2013-11-08 07:37:00,
2013-11-08 00:42:00,41.4,17.7,30.23,NW,315,0.0,0.0,38,0.00,,---,0.00,VWS V14.01,2013-11-08 07:42:00,
2013-11-08 00:47:00,41.0,18.0,30.23,NW,315,0.0,0.0,39,0.00,,---,0.00,VWS V14.01,2013-11-08 07:47:00,
2013-11-08 00:52:00,40.7,18.9,30.23,South,180,0.7,0.7,41,0.00,,---,0.00,VWS V14.01,2013-11-08 07:52:00,
2013-11-08 00:57:00,40.7,18.9,30.23,SE,135,0.0,0.0,41,0.00,,---,0.00,VWS V14.01,2013-11-08 07:57:00,
2013-11-08 01:02:00,40.5,18.1,30.23,SE,135,0.9,0.9,40,0.00,,---,0.00,VWS V14.01,2013-11-08 08:02:00,
2013-11-08 01:06:00,40.5,18.1,30.23,SE,135,0.7,0.7,40,0.00,,---,0.00,VWS V14.01,2013-11-08 08:06:00,
2013-11-08 01:11:00,40.9,18.5,30.23,SSE,158,0.2,0.2,40,0.00,,---,0.00,VWS V14.01,2013-11-08 08:11:00,
2013-11-08 01:16:00,41.6,18.5,30.23,SSE,158,0.7,0.7,39,0.00,,---,0.00,VWS V14.01,2013-11-08 08:16:00,
2013-11-08 01:21:00,42.8,19.6,30.23,SSW,202,0.9,0.9,39,0.00,,---,0.00,VWS V14.01,2013-11-08 08:21:00,
2013-11-08 01:26:00,41.8,18.7,30.23,SW,225,0.4,0.4,39,0.00,,---,0.00,VWS V14.01,2013-11-08 08:26:00,
2013-11-08 01:31:00,41.8,19.3,30.23,SSE,158,0.7,0.7,40,0.00,,---,0.00,VWS V14.01,2013-11-08 08:31:00,
2013-11-08 01:36:00,42.3,18.5,30.23,SSW,202,0.7,0.7,38,0.00,,---,0.00,VWS V14.01,2013-11-08 08:36:00,
2013-11-08 01:41:00,43.6,19.1,30.23,SSW,202,0.4,0.4,37,0.00,,---,0.00,VWS V14.01,2013-11-08 08:41:00,
2013-11-08 01:46:00,43.9,18.7,30.23,SSE,158,0.0,0.0,36,0.00,,---,0.00,VWS V14.01,2013-11-08 08:46:00,
2013-11-08 01:51:00,43.6,19.1,30.23,SSE,158,0.4,0.4,37,0.00,,---,0.00,VWS V14.01,2013-11-08 08:51:00,
2013-11-08 01:56:00,43.6,19.1,30.23,SSE,158,0.7,0.7,37,0.00,,---,0.00,VWS V14.01,2013-11-08 08:56:00,
2013-11-08 02:01:00,43.4,18.9,30.23,SSE,158,0.0,0.0,37,0.00,,---,0.00,VWS V14.01,2013-11-08 09:01:00,
2013-11-08 02:06:00,42.7,18.9,30.23,SSE,158,0.9,0.9,38,0.00,,---,0.00,VWS V14.01,2013-11-08 09:06:00,
2013-11-08 02:11:00,42.3,18.5,30.23,SSE,158,0.4,0.4,38,0.00,,---,0.00,VWS V14.01,2013-11-08 09:11:00,
2013-11-08 02:16:00,42.5,18.7,30.23,SSE,158,0.4,0.4,38,0.00,,---,0.00,VWS V14.01,2013-11-08 09:16:00,
2013-11-08 02:21:00,42.5,18.7,30.23,SSE,158,1.1,1.1,38,0.00,,---,0.00,VWS V14.01,2013-11-08 09:21:00,
2013-11-08 02:26:00,42.7,18.9,30.23,SE,135,0.7,0.7,38,0.00,,---,0.00,VWS V14.01,2013-11-08 09:26:00,
2013-11-08 02:31:00,42.1,18.3,30.23,SE,135,0.9,0.9,38,0.00,,---,0.00,VWS V14.01,2013-11-08 09:31:00,
2013-11-08 02:36:00,42.1,19.0,30.23,SE,135,0.0,0.0,39,0.00,,---,0.00,VWS V14.01,2013-11-08 09:36:00,
2013-11-08 02:41:00,42.3,17.9,30.23,SSE,158,0.7,0.7,37,0.00,,---,0.00,VWS V14.01,2013-11-08 09:41:00,
2013-11-08 02:46:00,43.2,18.1,30.23,SSE,158,0.4,0.4,36,0.00,,---,0.00,VWS V14.01,2013-11-08 09:46:00,
2013-11-08 02:51:00,43.4,18.2,30.23,SSE,158,0.4,0.4,36,0.00,,---,0.00,VWS V14.01,2013-11-08 09:51:00,
2013-11-08 02:56:00,43.4,18.2,30.22,SSE,158,0.2,0.2,36,0.00,,---,0.00,VWS V14.01,2013-11-08 09:56:00,
2013-11-08 03:01:00,43.6,17.8,30.22,SSE,158,0.7,0.7,35,0.00,,---,0.00,VWS V14.01,2013-11-08 10:01:00,
2013-11-08 03:06:00,43.6,17.8,30.22,SSE,158,0.0,0.0,35,0.00,,---,0.00,VWS V14.01,2013-11-08 10:06:00,
2013-11-08 03:11:00,43.4,17.6,30.22,SSE,158,0.9,0.9,35,0.00,,---,0.00,VWS V14.01,2013-11-08 10:11:00,
2013-11-08 03:16:00,43.4,17.6,30.21,SSE,158,0.4,0.4,35,0.00,,---,0.00,VWS V14.01,2013-11-08 10:16:00,
2013-11-08 03:21:00,43.6,17.8,30.21,SSE,158,0.0,0.0,35,0.00,,---,0.00,VWS V14.01,2013-11-08 10:21:00,
2013-11-08 03:26:00,43.7,16.5,30.21,SSE,158,0.4,0.4,33,0.00,,---,0.00,VWS V14.01,2013-11-08 10:26:00,
2013-11-08 03:31:00,43.9,16.7,30.21,SSE,158,0.7,0.7,33,0.00,,---,0.00,VWS V14.01,2013-11-08 10:31:00,
2013-11-08 03:36:00,43.7,16.5,30.21,SSE,158,1.6,1.6,33,0.00,,---,0.00,VWS V14.01,2013-11-08 10:36:00,
2013-11-08 03:41:00,43.7,17.2,30.21,SSE,158,1.8,1.8,34,0.00,,---,0.00,VWS V14.01,2013-11-08 10:41:00,
2013-11-08 03:46:00,43.7,16.5,30.21,SSE,158,0.0,0.0,33,0.00,,---,0.00,VWS V14.01,2013-11-08 10:46:00,
2013-11-08 03:51:00,43.4,16.2,30.20,SSE,158,0.4,0.4,33,0.00,,---,0.00,VWS V14.01,2013-11-08 10:51:00,
2013-11-08 03:56:00,43.4,16.9,30.20,SSE,158,0.2,0.2,34,0.00,,---,0.00,VWS V14.01,2013-11-08 10:56:00,
2013-11-08 04:01:00,43.4,16.2,30.20,SSE,158,0.4,0.4,33,0.00,,---,0.00,VWS V14.01,2013-11-08 11:01:00,
2013-11-08 04:06:00,43.6,17.1,30.20,SSE,158,1.8,1.8,34,0.00,,---,0.00,VWS V14.01,2013-11-08 11:06:00,
2013-11-08 04:11:00,43.9,16.7,30.20,SE,135,1.1,1.1,33,0.00,,---,0.00,VWS V14.01,2013-11-08 11:11:00,
2013-11-08 04:16:00,43.4,16.2,30.20,SSE,158,0.7,0.7,33,0.00,,---,0.00,VWS V14.01,2013-11-08 11:16:00,
2013-11-08 04:21:00,43.2,16.1,30.20,South,180,0.0,0.0,33,0.00,,---,0.00,VWS V14.01,2013-11-08 11:21:00,
2013-11-08 04:26:00,43.2,17.4,30.20,SE,135,1.3,1.3,35,0.00,,---,0.00,VWS V14.01,2013-11-08 11:26:00,
2013-11-08 04:31:00,43.2,16.7,30.20,SSE,158,0.7,0.7,34,0.00,,---,0.00,VWS V14.01,2013-11-08 11:31:00,
2013-11-08 04:36:00,43.0,16.6,30.20,SSE,158,0.7,0.7,34,0.00,,---,0.00,VWS V14.01,2013-11-08 11:36:00,
2013-11-08 04:41:00,42.8,17.1,30.20,SE,135,0.4,0.4,35,0.00,,---,0.00,VWS V14.01,2013-11-08 11:41:00,
2013-11-08 04:46:00,42.8,17.1,30.20,SSE,158,0.4,0.4,35,0.00,,---,0.00,VWS V14.01,2013-11-08 11:46:00,
2013-11-08 04:51:00,43.0,17.2,30.20,SSE,158,0.0,0.0,35,0.00,,---,0.00,VWS V14.01,2013-11-08 11:51:00,
2013-11-08 04:56:00,43.2,17.4,30.20,SSE,158,0.0,0.0,35,0.00,,---,0.00,VWS V14.01,2013-11-08 11:56:00,
2013-11-08 05:01:00,43.2,17.4,30.20,SSE,158,0.4,0.4,35,0.00,,---,0.00,VWS V14.01,2013-11-08 12:01:00,
2013-11-08 05:06:00,43.0,17.2,30.20,SSE,158,0.4,0.4,35,0.00,,---,0.00,VWS V14.01,2013-11-08 12:06:00,
2013-11-08 05:11:00,42.8,17.1,30.19,SSE,158,0.2,0.2,35,0.00,,---,0.00,VWS V14.01,2013-11-08 12:11:00,
2013-11-08 05:16:00,42.8,17.1,30.20,SSE,158,0.0,0.0,35,0.00,,---,0.00,VWS V14.01,2013-11-08 12:16:00,
2013-11-08 05:21:00,42.3,17.3,30.20,SSE,158,0.0,0.0,36,0.00,,---,0.00,VWS V14.01,2013-11-08 12:21:00,
2013-11-08 05:26:00,41.9,17.5,30.20,SSE,158,0.0,0.0,37,0.00,,---,0.00,VWS V14.01,2013-11-08 12:26:00,
2013-11-08 05:31:00,41.8,17.5,30.20,SSE,158,0.2,0.2,37,0.00,,---,0.00,VWS V14.01,2013-11-08 12:31:00,
2013-11-08 05:36:00,41.0,17.4,30.20,SSE,158,0.0,0.0,38,0.00,,---,0.00,VWS V14.01,2013-11-08 12:36:00,
2013-11-08 05:41:00,39.8,16.3,30.19,South,180,0.0,0.0,38,0.00,,---,0.00,VWS V14.01,2013-11-08 12:41:00,
2013-11-08 05:46:00,38.9,16.1,30.19,South,180,0.0,0.0,39,0.00,,---,0.00,VWS V14.01,2013-11-08 12:46:00,
2013-11-08 05:51:00,38.2,16.0,30.19,South,180,0.0,0.0,40,0.00,,---,0.00,VWS V14.01,2013-11-08 12:51:00,
2013-11-08 05:56:00,37.4,17.5,30.19,South,180,0.0,0.0,44,0.00,,---,0.00,VWS V14.01,2013-11-08 12:56:00,
2013-11-08 06:01:00,36.7,17.4,30.19,SSW,202,0.0,0.0,45,0.00,,---,0.00,VWS V14.01,2013-11-08 13:01:00,
2013-11-08 06:06:00,36.0,17.2,30.19,SSW,202,0.0,0.0,46,0.00,,---,0.00,VWS V14.01,2013-11-08 13:06:00,
2013-11-08 06:11:00,35.5,18.2,30.19,ESE,112,0.7,0.7,49,0.00,,---,0.00,VWS V14.01,2013-11-08 13:11:00,
2013-11-08 06:16:00,35.3,19.5,30.19,NE,45,0.0,0.0,52,0.00,,---,0.00,VWS V14.01,2013-11-08 13:16:00,
2013-11-08 06:21:00,35.3,19.0,30.20,NE,45,0.0,0.0,51,0.00,,---,0.00,VWS V14.01,2013-11-08 13:21:00,
2013-11-08 06:26:00,35.3,19.0,30.19,NE,45,0.2,0.2,51,0.00,,---,0.00,VWS V14.01,2013-11-08 13:26:00,
2013-11-08 06:31:00,35.3,19.0,30.19,NE,45,0.0,0.0,51,0.00,,---,0.00,VWS V14.01,2013-11-08 13:31:00,
2013-11-08 06:36:00,34.9,19.1,30.19,NE,45,0.0,0.0,52,0.00,,---,0.00,VWS V14.01,2013-11-08 13:36:00,
2013-11-08 06:41:00,34.9,20.4,30.19,ENE,68,0.0,0.0,55,0.00,,---,0.00,VWS V14.01,2013-11-08 13:41:00,
2013-11-08 06:46:00,35.1,20.1,30.19,East,90,0.0,0.0,54,0.00,,---,0.00,VWS V14.01,2013-11-08 13:46:00,
2013-11-08 06:51:00,35.3,21.2,30.19,ESE,112,0.4,0.4,56,0.00,,---,0.00,VWS V14.01,2013-11-08 13:51:00,
2013-11-08 06:56:00,35.1,20.6,30.19,ESE,112,0.2,0.2,55,0.00,,---,0.00,VWS V14.01,2013-11-08 13:56:00,
2013-11-08 07:01:00,35.3,21.2,30.19,ESE,112,0.4,0.4,56,0.00,,---,0.00,VWS V14.01,2013-11-08 14:01:00,
2013-11-08 07:06:00,36.7,21.6,30.19,ESE,112,0.9,0.9,54,0.00,,---,0.00,VWS V14.01,2013-11-08 14:06:00,
2013-11-08 07:11:00,37.8,21.8,30.19,ESE,112,0.0,0.0,52,0.00,,---,0.00,VWS V14.01,2013-11-08 14:11:00,
2013-11-08 07:16:00,40.3,22.7,30.20,ESE,112,0.0,0.0,49,0.00,,---,0.00,VWS V14.01,2013-11-08 14:16:00,
2013-11-08 07:21:00,41.9,23.7,30.20,ESE,112,0.0,0.0,48,0.00,,---,0.00,VWS V14.01,2013-11-08 14:21:00,
2013-11-08 07:26:00,43.0,23.6,30.20,ESE,112,0.0,0.0,46,0.00,,---,0.24,VWS V14.01,2013-11-08 14:26:00,
2013-11-08 07:31:00,44.1,23.0,30.20,ESE,112,0.0,0.0,43,0.00,,---,0.24,VWS V14.01,2013-11-08 14:31:00,
2013-11-08 07:36:00,45.4,23.1,30.19,ESE,112,0.0,0.0,41,0.00,,---,0.00,VWS V14.01,2013-11-08 14:36:00,
2013-11-08 07:41:00,46.6,24.8,30.19,ESE,112,0.0,0.0,42,0.00,,---,0.00,VWS V14.01,2013-11-08 14:41:00,
2013-11-08 07:46:00,47.9,24.1,30.20,ESE,112,0.0,0.0,39,0.00,,---,0.00,VWS V14.01,2013-11-08 14:46:00,
2013-11-08 07:51:00,47.2,22.9,30.20,SSW,202,0.0,0.0,38,0.00,,---,0.00,VWS V14.01,2013-11-08 14:51:00,
2013-11-08 07:56:00,47.3,23.6,30.20,SSW,202,0.0,0.0,39,0.00,,---,0.24,VWS V14.01,2013-11-08 14:56:00,
2013-11-08 08:01:00,48.2,23.8,30.20,South,180,0.0,0.0,38,0.00,,---,0.00,VWS V14.01,2013-11-08 15:01:00,
2013-11-08 08:06:00,47.3,22.4,30.20,SSW,202,0.4,0.4,37,0.00,,---,0.00,VWS V14.01,2013-11-08 15:06:00,
2013-11-08 08:08:00,46.8,21.9,30.20,SSW,202,0.4,0.4,37,0.00,,---,0.00,VWS V14.01,2013-11-08 15:08:00,
2013-11-08 08:11:00,46.8,21.9,30.20,SSW,202,0.4,0.4,37,0.00,,---,0.00,VWS V14.01,2013-11-08 15:11:00,
2013-11-08 08:16:00,46.8,21.9,30.20,SSW,202,0.4,0.4,37,0.00,,---,0.24,VWS V14.01,2013-11-08 15:16:00,
2013-11-08 08:21:00,46.8,21.9,30.20,SSW,202,0.4,0.4,37,0.00,,---,0.00,VWS V14.01,2013-11-08 15:21:00,
2013-11-08 08:29:00,46.8,21.9,30.20,SSW,202,0.4,0.4,37,0.00,,---,0.00,VWS V14.01,2013-11-08 15:29:00,
2013-11-08 08:35:00,46.8,21.9,30.20,SSW,202,0.4,0.4,37,0.00,,---,0.00,VWS V14.01,2013-11-08 15:35:00,
2013-11-08 08:43:00,46.8,21.9,30.20,SSW,202,0.4,0.4,37,0.00,,---,0.24,VWS V14.01,2013-11-08 15:43:00,
2013-11-08 08:49:00,46.8,21.9,30.20,SSW,202,0.4,0.4,37,0.00,,---,0.00,VWS V14.01,2013-11-08 15:49:00,
2013-11-08 08:56:00,46.8,21.9,30.20,SSW,202,0.4,0.4,37,0.00,,---,0.00,VWS V14.01,2013-11-08 15:56:00,
2013-11-08 09:00:00,50.8,22.0,30.20,WSW,248,0.9,0.9,32,0.00,,---,0.00,VWS V14.01,2013-11-08 16:00:00,
2013-11-08 09:01:00,50.8,22.0,30.20,WSW,248,0.9,0.9,32,0.00,,---,0.00,VWS V14.01,2013-11-08 16:01:00,
2013-11-08 09:06:00,50.8,22.0,30.20,WSW,248,0.9,0.9,32,0.00,,---,0.00,VWS V14.01,2013-11-08 16:06:00,
2013-11-08 09:34:00,50.8,22.0,30.20,WSW,248,0.9,0.9,32,0.00,,---,0.00,VWS V14.01,2013-11-08 16:34:00,
2013-11-08 09:39:00,50.8,22.0,30.20,WSW,248,0.9,0.9,32,0.00,,---,0.00,VWS V14.01,2013-11-08 16:39:00,
2013-11-08 09:54:00,50.8,22.0,30.20,WSW,248,0.9,0.9,32,0.00,,---,0.00,VWS V14.01,2013-11-08 16:54:00,
2013-11-08 09:59:00,50.8,22.0,30.20,WSW,248,0.9,0.9,32,0.00,,---,0.00,VWS V14.01,2013-11-08 16:59:00,
2013-11-08 10:04:00,50.8,22.0,30.20,WSW,248,0.9,0.9,32,0.00,,---,0.00,VWS V14.01,2013-11-08 17:04:00,
2013-11-08 10:14:00,50.8,22.0,30.20,WSW,248,0.9,0.9,32,0.00,,---,0.00,VWS V14.01,2013-11-08 17:14:00,
2013-11-08 10:26:00,50.8,22.0,30.20,WSW,248,0.9,0.9,32,0.00,,---,0.00,VWS V14.01,2013-11-08 17:26:00,
2013-11-08 10:31:00,50.8,22.0,30.20,WSW,248,0.9,0.9,32,0.00,,---,0.00,VWS V14.01,2013-11-08 17:31:00,
2013-11-08 10:41:00,50.8,22.0,30.20,WSW,248,0.9,0.9,32,0.00,,---,0.00,VWS V14.01,2013-11-08 17:41:00,
2013-11-08 10:46:00,50.8,22.0,30.20,WSW,248,0.9,0.9,32,0.00,,---,0.00,VWS V14.01,2013-11-08 17:46:00,
2013-11-08 10:51:00,50.8,22.0,30.20,WSW,248,0.9,0.9,32,0.00,,---,0.00,VWS V14.01,2013-11-08 17:51:00,
2013-11-08 10:56:00,50.8,22.0,30.20,WSW,248,0.9,0.9,32,0.00,,---,0.00,VWS V14.01,2013-11-08 17:56:00,
2013-11-08 11:01:00,50.8,22.0,30.20,WSW,248,0.9,0.9,32,0.00,,---,0.00,VWS V14.01,2013-11-08 18:01:00,
2013-11-08 11:06:00,50.8,22.0,30.20,WSW,248,0.9,0.9,32,0.00,,---,0.00,VWS V14.01,2013-11-08 18:06:00,
2013-11-08 11:15:00,50.8,22.0,30.20,WSW,248,0.9,0.9,32,0.00,,---,0.00,VWS V14.01,2013-11-08 18:15:00,
2013-11-08 11:21:00,50.8,22.0,30.20,WSW,248,0.9,0.9,32,0.00,,---,0.00,VWS V14.01,2013-11-08 18:21:00,
2013-11-08 11:27:00,50.8,22.0,30.20,WSW,248,0.9,0.9,32,0.00,,---,0.00,VWS V14.01,2013-11-08 18:27:00,
2013-11-08 11:42:00,50.8,22.0,30.20,WSW,248,0.9,0.9,32,0.00,,---,0.00,VWS V14.01,2013-11-08 18:42:00,
2013-11-08 11:47:00,50.8,22.0,30.20,WSW,248,0.9,0.9,32,0.00,,---,0.00,VWS V14.01,2013-11-08 18:47:00,
2013-11-08 11:52:00,50.8,22.0,30.20,WSW,248,0.9,0.9,32,0.00,,---,0.00,VWS V14.01,2013-11-08 18:52:00,
2013-11-08 12:00:00,50.8,22.0,30.20,WSW,248,0.9,0.9,32,0.00,,---,0.00,VWS V14.01,2013-11-08 19:00:00,
2013-11-08 12:05:00,56.5,26.2,30.14,West,270,1.8,1.8,31,0.00,,---,0.00,VWS V14.01,2013-11-08 19:05:00,
2013-11-08 12:10:00,56.5,27.0,30.13,WSW,248,1.8,1.8,32,0.00,,---,0.00,VWS V14.01,2013-11-08 19:10:00,
2013-11-08 12:15:00,56.9,26.6,30.13,WSW,248,0.4,0.4,31,0.00,,---,0.00,VWS V14.01,2013-11-08 19:15:00,
2013-11-08 12:20:00,57.2,26.1,30.13,WSW,248,2.9,2.9,30,0.00,,---,0.00,VWS V14.01,2013-11-08 19:20:00,
2013-11-08 12:25:00,57.4,27.0,30.12,West,270,0.7,0.7,31,0.00,,---,0.00,VWS V14.01,2013-11-08 19:25:00,
2013-11-08 12:30:00,57.8,26.6,30.12,WSW,248,3.8,3.8,30,0.00,,---,0.00,VWS V14.01,2013-11-08 19:30:00,
2013-11-08 12:35:00,57.6,27.2,30.12,WSW,248,1.8,1.8,31,0.00,,---,0.00,VWS V14.01,2013-11-08 19:35:00,
2013-11-08 12:40:00,58.0,26.0,30.11,WSW,248,4.7,4.7,29,0.00,,---,0.00,VWS V14.01,2013-11-08 19:40:00,
2013-11-08 12:45:00,57.4,26.2,30.11,WSW,248,3.4,3.4,30,0.00,,---,0.00,VWS V14.01,2013-11-08 19:45:00,
2013-11-08 12:50:00,57.2,26.1,30.11,WSW,248,1.3,1.3,30,0.00,,---,0.00,VWS V14.01,2013-11-08 19:50:00,
2013-11-08 12:55:00,58.0,26.8,30.11,WSW,248,1.8,1.8,30,0.00,,---,0.00,VWS V14.01,2013-11-08 19:55:00,
2013-11-08 13:00:00,57.8,25.8,30.11,West,270,1.1,1.1,29,0.00,,---,0.00,VWS V14.01,2013-11-08 20:00:00,
2013-11-08 13:05:00,58.1,26.9,30.10,WSW,248,3.1,3.1,30,0.00,,---,0.00,VWS V14.01,2013-11-08 20:05:00,
2013-11-08 13:10:00,58.3,26.2,30.10,WSW,248,2.5,2.5,29,0.00,,---,0.00,VWS V14.01,2013-11-08 20:10:00,
2013-11-08 13:15:00,59.2,26.1,30.10,West,270,4.0,4.0,28,0.00,,---,0.00,VWS V14.01,2013-11-08 20:15:00,
2013-11-08 13:20:00,59.0,26.0,30.10,SW,225,1.1,1.1,28,0.00,,---,0.00,VWS V14.01,2013-11-08 20:20:00,
2013-11-08 13:25:00,59.8,26.6,30.10,WSW,248,1.6,1.6,28,0.00,,---,0.00,VWS V14.01,2013-11-08 20:25:00,
2013-11-08 13:30:00,59.6,26.5,30.10,SSW,202,0.4,0.4,28,0.00,,---,0.00,VWS V14.01,2013-11-08 20:30:00,
2013-11-08 13:31:00,59.9,26.7,30.09,South,180,0.0,0.0,28,0.00,,---,0.00,VWS V14.01,2013-11-08 20:31:00,
2013-11-08 13:35:00,59.9,26.7,30.09,South,180,0.0,0.0,28,0.00,,---,0.00,VWS V14.01,2013-11-08 20:35:00,
2013-11-08 13:40:00,59.9,26.7,30.09,South,180,0.0,0.0,28,0.00,,---,0.00,VWS V14.01,2013-11-08 20:40:00,
2013-11-08 13:47:00,59.9,26.7,30.09,South,180,0.0,0.0,28,0.00,,---,0.00,VWS V14.01,2013-11-08 20:47:00,
2013-11-08 13:54:00,59.9,26.7,30.09,South,180,0.0,0.0,28,0.00,,---,0.00,VWS V14.01,2013-11-08 20:54:00,
2013-11-08 14:00:00,59.0,26.0,30.09,West,270,0.9,0.9,28,0.00,,---,0.00,VWS V14.01,2013-11-08 21:00:00,
2013-11-08 14:05:00,59.0,26.0,30.09,West,270,0.9,0.9,28,0.00,,---,0.00,VWS V14.01,2013-11-08 21:05:00,
2013-11-08 14:10:00,59.0,26.0,30.09,West,270,0.9,0.9,28,0.00,,---,0.00,VWS V14.01,2013-11-08 21:10:00,
2013-11-08 14:20:00,59.0,26.0,30.09,West,270,0.9,0.9,28,0.00,,---,0.00,VWS V14.01,2013-11-08 21:20:00,
2013-11-08 14:25:00,59.0,26.0,30.09,West,270,0.9,0.9,28,0.00,,---,0.00,VWS V14.01,2013-11-08 21:25:00,
2013-11-08 14:34:00,59.0,26.0,30.09,West,270,0.9,0.9,28,0.00,,---,0.00,VWS V14.01,2013-11-08 21:34:00,
2013-11-08 14:40:00,59.0,26.0,30.09,West,270,0.9,0.9,28,0.00,,---,0.24,VWS V14.01,2013-11-08 21:40:00,
2013-11-08 14:45:00,59.0,26.0,30.09,West,270,0.9,0.9,28,0.00,,---,0.00,VWS V14.01,2013-11-08 21:45:00,
2013-11-08 14:54:00,59.0,26.0,30.09,West,270,0.9,0.9,28,0.00,,---,0.00,VWS V14.01,2013-11-08 21:54:00,
2013-11-08 14:59:00,59.0,26.0,30.09,West,270,0.9,0.9,28,0.00,,---,0.00,VWS V14.01,2013-11-08 21:59:00,
2013-11-08 15:04:00,59.0,26.0,30.09,West,270,0.9,0.9,28,0.00,,---,0.00,VWS V14.01,2013-11-08 22:04:00,
2013-11-08 15:09:00,59.0,26.0,30.09,West,270,0.9,0.9,28,0.00,,---,0.00,VWS V14.01,2013-11-08 22:09:00,
2013-11-08 15:22:00,59.0,26.0,30.09,West,270,0.9,0.9,28,0.00,,---,0.00,VWS V14.01,2013-11-08 22:22:00,
2013-11-08 15:27:00,59.0,26.0,30.09,West,270,0.9,0.9,28,0.00,,---,0.00,VWS V14.01,2013-11-08 22:27:00,
2013-11-08 15:41:00,59.0,26.0,30.09,West,270,0.9,0.9,28,0.00,,---,0.00,VWS V14.01,2013-11-08 22:41:00,
2013-11-08 15:47:00,59.0,26.0,30.09,West,270,0.9,0.9,28,0.00,,---,0.00,VWS V14.01,2013-11-08 22:47:00,
2013-11-08 15:52:00,59.0,26.0,30.09,West,270,0.9,0.9,28,0.00,,---,0.00,VWS V14.01,2013-11-08 22:52:00,
2013-11-08 16:00:00,66.1,26.2,30.06,West,270,0.0,0.9,22,0.00,,---,0.24,VWS V14.01,2013-11-08 23:00:00,
2013-11-08 16:05:00,67.0,26.9,30.06,NE,45,0.4,0.4,22,0.00,,---,0.00,VWS V14.01,2013-11-08 23:05:00,
2013-11-08 16:10:00,66.2,26.3,30.06,SSE,158,0.2,0.2,22,0.00,,---,0.00,VWS V14.01,2013-11-08 23:10:00,
2013-11-08 16:15:00,64.6,24.9,30.06,WSW,248,0.9,0.9,22,0.00,,---,0.00,VWS V14.01,2013-11-08 23:15:00,
2013-11-08 16:20:00,63.4,25.0,30.06,WSW,248,0.2,0.2,23,0.00,,---,0.00,VWS V14.01,2013-11-08 23:20:00,
2013-11-08 16:25:00,62.6,25.3,30.06,South,180,0.0,0.0,24,0.00,,---,0.24,VWS V14.01,2013-11-08 23:25:00,
2013-11-08 16:30:00,62.3,25.1,30.06,WNW,292,0.0,0.0,24,0.00,,---,0.00,VWS V14.01,2013-11-08 23:30:00,
2013-11-08 16:35:00,61.9,23.7,30.06,SSW,202,0.4,0.4,23,0.00,,---,0.00,VWS V14.01,2013-11-08 23:35:00,
2013-11-08 16:40:00,61.7,24.6,30.06,SSW,202,1.1,1.1,24,0.00,,---,0.00,VWS V14.01,2013-11-08 23:40:00,
2013-11-08 16:45:00,61.4,24.3,30.06,SSW,202,0.0,0.0,24,0.00,,---,0.00,VWS V14.01,2013-11-08 23:45:00,
2013-11-08 16:50:00,61.0,25.0,30.06,SSW,202,1.1,1.1,25,0.00,,---,0.00,VWS V14.01,2013-11-08 23:50:00,
2013-11-08 16:55:00,60.3,24.4,30.06,SSW,202,0.0,0.0,25,0.00,,---,0.00,VWS V14.01,2013-11-08 23:55:00,
2013-11-08 17:00:00,59.9,24.0,30.06,SW,225,0.4,0.4,25,0.00,,---,0.00,VWS V14.01,2013-11-09 00:00:00,
2013-11-08 17:05:00,59.4,24.5,30.06,SW,225,0.0,0.0,26,0.00,,---,0.00,VWS V14.01,2013-11-09 00:05:00,
2013-11-08 17:10:00,58.7,24.8,30.06,SW,225,0.0,0.0,27,0.00,,---,0.00,VWS V14.01,2013-11-09 00:10:00,
2013-11-08 17:15:00,58.0,24.2,30.06,SW,225,0.0,0.0,27,0.00,,---,0.00,VWS V14.01,2013-11-09 00:15:00,
2013-11-08 17:20:00,57.2,24.4,30.06,SW,225,0.0,0.0,28,0.00,,---,0.00,VWS V14.01,2013-11-09 00:20:00,
2013-11-08 17:25:00,56.7,24.0,30.06,SW,225,0.0,0.0,28,0.00,,---,0.00,VWS V14.01,2013-11-09 00:25:00,
2013-11-08 17:30:00,56.2,24.4,30.06,SW,225,0.0,0.0,29,0.00,,---,0.00,VWS V14.01,2013-11-09 00:30:00,
2013-11-08 17:35:00,55.4,23.7,30.06,SW,225,0.0,0.0,29,0.00,,---,0.00,VWS V14.01,2013-11-09 00:35:00,
2013-11-08 17:40:00,54.7,23.9,30.07,SW,225,0.0,0.0,30,0.00,,---,0.00,VWS V14.01,2013-11-09 00:40:00,
2013-11-08 17:45:00,54.4,24.4,30.07,SW,225,0.0,0.0,31,0.00,,---,0.00,VWS V14.01,2013-11-09 00:45:00,
2013-11-08 17:50:00,53.8,24.6,30.07,SW,225,0.0,0.0,32,0.00,,---,0.00,VWS V14.01,2013-11-09 00:50:00,
2013-11-08 17:55:00,53.5,24.4,30.07,SW,225,0.0,0.0,32,0.00,,---,0.00,VWS V14.01,2013-11-09 00:55:00,
2013-11-08 18:00:00,53.3,25.7,30.07,SW,225,0.0,0.0,34,0.00,,---,0.00,VWS V14.01,2013-11-09 01:00:00,
2013-11-08 18:05:00,53.1,25.5,30.07,SSW,202,0.4,0.4,34,0.00,,---,0.00,VWS V14.01,2013-11-09 01:05:00,
2013-11-08 18:10:00,52.9,26.0,30.07,SSE,158,0.0,0.0,35,0.00,,---,0.00,VWS V14.01,2013-11-09 01:10:00,
2013-11-08 18:15:00,52.7,26.5,30.07,SSE,158,0.0,0.0,36,0.00,,---,0.00,VWS V14.01,2013-11-09 01:15:00,
2013-11-08 18:20:00,52.4,26.9,30.08,SSE,158,0.7,0.7,37,0.00,,---,0.00,VWS V14.01,2013-11-09 01:20:00,
2013-11-08 18:25:00,52.2,26.7,30.07,SSE,158,0.4,0.4,37,0.00,,---,0.00,VWS V14.01,2013-11-09 01:25:00,
2013-11-08 18:30:00,51.8,27.6,30.07,ESE,112,1.6,1.6,39,0.00,,---,0.00,VWS V14.01,2013-11-09 01:30:00,
2013-11-08 18:31:00,51.8,27.6,30.08,SE,135,1.1,1.1,39,0.00,,---,0.00,VWS V14.01,2013-11-09 01:31:00,
2013-11-08 18:35:00,51.8,27.6,30.08,SE,135,1.1,1.1,39,0.00,,---,0.00,VWS V14.01,2013-11-09 01:35:00,
2013-11-08 18:40:00,51.8,27.6,30.08,SE,135,1.1,1.1,39,0.00,,---,0.00,VWS V14.01,2013-11-09 01:40:00,
2013-11-08 18:48:00,51.8,27.6,30.08,SE,135,1.1,1.1,39,0.00,,---,0.00,VWS V14.01,2013-11-09 01:48:00,
2013-11-08 18:53:00,51.8,27.6,30.08,SE,135,1.1,1.1,39,0.00,,---,0.00,VWS V14.01,2013-11-09 01:53:00,
2013-11-08 19:00:00,51.8,27.6,30.08,SE,135,1.1,1.1,39,0.00,,---,0.00,VWS V14.01,2013-11-09 02:00:00,
2013-11-08 19:05:00,50.8,28.5,30.08,SE,135,1.3,1.3,42,0.00,,---,0.00,VWS V14.01,2013-11-09 02:05:00,
2013-11-08 19:20:00,50.8,28.5,30.08,SE,135,1.3,1.3,42,0.00,,---,0.24,VWS V14.01,2013-11-09 02:20:00,
2013-11-08 19:41:00,50.8,28.5,30.08,SE,135,1.3,1.3,42,0.00,,---,0.00,VWS V14.01,2013-11-09 02:41:00,
2013-11-08 19:53:00,50.8,28.5,30.08,SE,135,1.3,1.3,42,0.00,,---,0.00,VWS V14.01,2013-11-09 02:53:00,
2013-11-08 19:58:00,50.8,28.5,30.08,SE,135,1.3,1.3,42,0.00,,---,0.00,VWS V14.01,2013-11-09 02:58:00,
2013-11-08 20:03:00,49.0,26.3,30.09,SE,135,1.1,1.1,41,0.00,,---,0.00,VWS V14.01,2013-11-09 03:03:00,
2013-11-08 20:08:00,48.6,26.6,30.09,SE,135,1.8,1.8,42,0.00,,---,0.00,VWS V14.01,2013-11-09 03:08:00,
2013-11-08 20:13:00,48.6,26.6,30.09,SE,135,2.2,2.2,42,0.00,,---,0.00,VWS V14.01,2013-11-09 03:13:00,
2013-11-08 20:18:00,49.0,26.9,30.09,SE,135,2.0,2.0,42,0.00,,---,0.00,VWS V14.01,2013-11-09 03:18:00,
2013-11-08 20:23:00,49.0,26.3,30.09,SE,135,3.1,3.1,41,0.00,,---,0.00,VWS V14.01,2013-11-09 03:23:00,
2013-11-08 20:28:00,49.1,26.4,30.09,SE,135,2.5,2.5,41,0.00,,---,0.00,VWS V14.01,2013-11-09 03:28:00,
2013-11-08 20:33:00,49.3,26.6,30.09,SE,135,1.8,1.8,41,0.00,,---,0.00,VWS V14.01,2013-11-09 03:33:00,
2013-11-08 20:38:00,49.1,26.4,30.09,ESE,112,1.6,1.6,41,0.00,,---,0.00,VWS V14.01,2013-11-09 03:38:00,
2013-11-08 20:43:00,49.1,26.4,30.09,SE,135,2.2,2.2,41,0.00,,---,0.00,VWS V14.01,2013-11-09 03:43:00,
2013-11-08 20:48:00,49.1,26.4,30.09,SE,135,1.8,1.8,41,0.00,,---,0.00,VWS V14.01,2013-11-09 03:48:00,
2013-11-08 20:53:00,48.8,26.2,30.09,SE,135,0.9,0.9,41,0.00,,---,0.00,VWS V14.01,2013-11-09 03:53:00,
2013-11-08 20:58:00,48.2,26.2,30.09,SE,135,0.9,0.9,42,0.00,,---,0.00,VWS V14.01,2013-11-09 03:58:00,
2013-11-08 21:03:00,47.9,26.5,30.09,SE,135,1.1,2.2,43,0.00,,---,0.00,VWS V14.01,2013-11-09 04:03:00,
2013-11-08 21:08:00,47.7,26.3,30.09,SE,135,0.7,0.7,43,0.00,,---,0.00,VWS V14.01,2013-11-09 04:08:00,
2013-11-08 21:13:00,47.3,26.5,30.09,SE,135,1.8,1.8,44,0.00,,---,0.00,VWS V14.01,2013-11-09 04:13:00,
2013-11-08 21:18:00,47.5,26.7,30.09,SE,135,1.3,1.3,44,0.00,,---,0.00,VWS V14.01,2013-11-09 04:18:00,
2013-11-08 21:23:00,47.7,26.9,30.09,SE,135,2.2,2.2,44,0.00,,---,0.00,VWS V14.01,2013-11-09 04:23:00,
2013-11-08 21:28:00,47.7,26.9,30.10,SE,135,2.5,2.5,44,0.00,,---,0.00,VWS V14.01,2013-11-09 04:28:00,
2013-11-08 21:33:00,47.9,27.0,30.10,SE,135,1.8,1.8,44,0.00,,---,0.00,VWS V14.01,2013-11-09 04:33:00,
2013-11-08 21:38:00,48.1,27.2,30.10,SE,135,1.3,1.3,44,0.00,,---,0.00,VWS V14.01,2013-11-09 04:38:00,
2013-11-08 21:43:00,47.9,27.0,30.10,SE,135,0.9,0.9,44,0.00,,---,0.00,VWS V14.01,2013-11-09 04:43:00,
2013-11-08 21:48:00,47.7,26.9,30.10,ESE,112,0.7,0.7,44,0.00,,---,0.00,VWS V14.01,2013-11-09 04:48:00,
2013-11-08 21:53:00,47.3,26.5,30.10,ESE,112,0.0,0.0,44,0.00,,---,0.00,VWS V14.01,2013-11-09 04:53:00,
2013-11-08 21:58:00,46.8,26.0,30.10,ESE,112,0.0,0.0,44,0.00,,---,0.00,VWS V14.01,2013-11-09 04:58:00,
2013-11-08 22:01:00,46.8,26.0,30.10,ENE,68,0.2,0.2,44,0.00,,---,0.00,VWS V14.01,2013-11-09 05:01:00,
2013-11-08 22:02:00,46.6,25.9,30.09,ENE,68,0.4,0.4,44,0.00,,---,0.00,VWS V14.01,2013-11-09 05:02:00,
2013-11-08 22:07:00,46.8,26.6,30.10,East,90,0.9,0.9,45,0.00,,---,0.00,VWS V14.01,2013-11-09 05:07:00,
2013-11-08 22:12:00,47.2,27.0,30.10,ESE,112,0.9,0.9,45,0.00,,---,0.00,VWS V14.01,2013-11-09 05:12:00,
2013-11-08 22:17:00,47.3,27.0,30.10,ESE,112,1.1,1.1,45,0.00,,---,0.00,VWS V14.01,2013-11-09 05:17:00,
2013-11-08 22:22:00,47.5,26.7,30.11,ESE,112,0.7,0.7,44,0.00,,---,0.00,VWS V14.01,2013-11-09 05:22:00,
2013-11-08 22:27:00,48.1,26.7,30.11,ESE,112,1.1,1.1,43,0.00,,---,0.00,VWS V14.01,2013-11-09 05:27:00,
2013-11-08 22:32:00,48.4,26.4,30.10,ESE,112,1.8,1.8,42,0.00,,---,0.00,VWS V14.01,2013-11-09 05:32:00,
2013-11-08 22:37:00,48.6,26.6,30.10,SE,135,0.0,0.0,42,0.00,,---,0.00,VWS V14.01,2013-11-09 05:37:00,
2013-11-08 22:42:00,47.7,25.8,30.10,SE,135,0.0,0.0,42,0.00,,---,0.00,VWS V14.01,2013-11-09 05:42:00,
2013-11-08 22:47:00,46.8,26.0,30.10,WNW,292,0.0,0.0,44,0.00,,---,0.00,VWS V14.01,2013-11-09 05:47:00,
2013-11-08 22:52:00,45.9,25.8,30.10,NW,315,0.0,0.0,45,0.00,,---,0.00,VWS V14.01,2013-11-09 05:52:00,
2013-11-08 22:57:00,45.2,26.7,30.10,SSE,158,0.4,0.4,48,0.00,,---,0.00,VWS V14.01,2013-11-09 05:57:00,
2013-11-08 23:02:00,44.8,25.3,30.10,SSE,158,0.0,0.0,46,0.00,,---,0.00,VWS V14.01,2013-11-09 06:02:00,
2013-11-08 23:07:00,44.1,25.7,30.10,SSE,158,0.0,0.0,48,0.00,,---,0.00,VWS V14.01,2013-11-09 06:07:00,
2013-11-08 23:12:00,43.9,25.5,30.10,SSE,158,0.0,0.0,48,0.00,,---,0.00,VWS V14.01,2013-11-09 06:12:00,
2013-11-08 23:17:00,43.4,25.5,30.10,SSE,158,0.0,0.0,49,0.00,,---,0.00,VWS V14.01,2013-11-09 06:17:00,
2013-11-08 23:22:00,43.0,25.6,30.10,SSE,158,0.0,0.0,50,0.00,,---,0.00,VWS V14.01,2013-11-09 06:22:00,
2013-11-08 23:27:00,42.8,25.9,30.10,SE,135,0.4,0.4,51,0.00,,---,0.24,VWS V14.01,2013-11-09 06:27:00,
2013-11-08 23:32:00,42.8,26.9,30.10,SE,135,0.4,0.4,53,0.00,,---,0.00,VWS V14.01,2013-11-09 06:32:00,
2013-11-08 23:37:00,43.2,27.2,30.10,SE,135,1.1,1.1,53,0.00,,---,0.00,VWS V14.01,2013-11-09 06:37:00,
2013-11-08 23:42:00,43.7,27.2,30.10,SE,135,0.4,0.4,52,0.00,,---,0.00,VWS V14.01,2013-11-09 06:42:00,
2013-11-08 23:47:00,43.7,27.2,30.10,SE,135,1.1,1.1,52,0.00,,---,0.00,VWS V14.01,2013-11-09 06:47:00,
2013-11-08 23:52:00,43.6,26.7,30.10,SE,135,0.0,0.0,51,0.00,,---,0.00,VWS V14.01,2013-11-09 06:52:00,
2013-11-08 23:57:00,43.0,27.0,30.10,SE,135,0.0,0.0,53,0.00,,---,0.00,VWS V14.01,2013-11-09 06:57:00,